sensor_id;sensor_type;location;lat;lon;timestamp;temperature;humidity
3736;DHT22;1883;48.202;16.310;2024-01-06T00:02:01;5.90;62.40
3736;DHT22;1883;48.202;16.310;2024-01-06T00:04:32;5.90;62.60
3736;DHT22;1883;48.202;16.310;2024-01-06T00:07:06;5.90;62.60
3736;DHT22;1883;48.202;16.310;2024-01-06T00:09:35;5.90;62.60
3736;DHT22;1883;48.202;16.310;2024-01-06T00:12:06;5.90;62.50
3736;DHT22;1883;48.202;16.310;2024-01-06T00:14:33;5.90;62.40
3736;DHT22;1883;48.202;16.310;2024-01-06T00:17:01;5.90;62.30
3736;DHT22;1883;48.202;16.310;2024-01-06T00:19:28;6.00;62.20
3736;DHT22;1883;48.202;16.310;2024-01-06T00:21:56;6.00;62.10
3736;DHT22;1883;48.202;16.310;2024-01-06T00:24:24;6.00;62.00
3736;DHT22;1883;48.202;16.310;2024-01-06T00:26:52;6.00;61.90
3736;DHT22;1883;48.202;16.310;2024-01-06T00:29:21;6.00;61.70
3736;DHT22;1883;48.202;16.310;2024-01-06T00:31:50;6.00;61.60
3736;DHT22;1883;48.202;16.310;2024-01-06T00:34:46;6.10;61.50
3736;DHT22;1883;48.202;16.310;2024-01-06T00:37:21;6.00;61.40
3736;DHT22;1883;48.202;16.310;2024-01-06T00:39:49;5.90;61.30
3736;DHT22;1883;48.202;16.310;2024-01-06T00:42:17;5.90;61.10
3736;DHT22;1883;48.202;16.310;2024-01-06T00:44:52;6.00;60.90
3736;DHT22;1883;48.202;16.310;2024-01-06T00:47:21;5.90;60.70
3736;DHT22;1883;48.202;16.310;2024-01-06T00:49:50;5.90;60.50
3736;DHT22;1883;48.202;16.310;2024-01-06T00:52:18;5.80;60.20
3736;DHT22;1883;48.202;16.310;2024-01-06T00:54:45;5.80;59.90
3736;DHT22;1883;48.202;16.310;2024-01-06T00:57:21;5.80;59.50
3736;DHT22;1883;48.202;16.310;2024-01-06T01:00:09;5.80;59.10
3736;DHT22;1883;48.202;16.310;2024-01-06T01:02:36;5.80;58.70
3736;DHT22;1883;48.202;16.310;2024-01-06T01:05:06;5.80;58.20
3736;DHT22;1883;48.202;16.310;2024-01-06T01:07:34;5.80;57.80
3736;DHT22;1883;48.202;16.310;2024-01-06T01:10:02;5.80;57.30
3736;DHT22;1883;48.202;16.310;2024-01-06T01:12:31;5.80;56.90
3736;DHT22;1883;48.202;16.310;2024-01-06T01:15:06;5.80;56.50
3736;DHT22;1883;48.202;16.310;2024-01-06T01:17:47;5.80;56.10
3736;DHT22;1883;48.202;16.310;2024-01-06T01:20:22;5.60;55.70
3736;DHT22;1883;48.202;16.310;2024-01-06T01:23:03;5.60;55.10
3736;DHT22;1883;48.202;16.310;2024-01-06T01:25:31;5.60;54.60
3736;DHT22;1883;48.202;16.310;2024-01-06T01:27:58;5.70;54.20
3736;DHT22;1883;48.202;16.310;2024-01-06T01:30:55;5.70;53.90
3736;DHT22;1883;48.202;16.310;2024-01-06T01:33:22;5.60;53.40
3736;DHT22;1883;48.202;16.310;2024-01-06T01:35:49;5.60;52.90
3736;DHT22;1883;48.202;16.310;2024-01-06T01:38:16;5.60;52.50
3736;DHT22;1883;48.202;16.310;2024-01-06T01:40:43;5.70;52.00
3736;DHT22;1883;48.202;16.310;2024-01-06T01:43:16;5.80;51.70
3736;DHT22;1883;48.202;16.310;2024-01-06T01:45:43;5.90;51.30
3736;DHT22;1883;48.202;16.310;2024-01-06T01:48:12;5.80;51.10
3736;DHT22;1883;48.202;16.310;2024-01-06T01:50:39;5.80;50.60
3736;DHT22;1883;48.202;16.310;2024-01-06T01:53:07;5.90;50.20
3736;DHT22;1883;48.202;16.310;2024-01-06T01:55:34;5.90;50.00
3736;DHT22;1883;48.202;16.310;2024-01-06T01:58:01;5.90;49.70
3736;DHT22;1883;48.202;16.310;2024-01-06T02:00:28;5.90;49.50
3736;DHT22;1883;48.202;16.310;2024-01-06T02:02:55;5.90;49.30
3736;DHT22;1883;48.202;16.310;2024-01-06T02:05:24;5.80;49.20
3736;DHT22;1883;48.202;16.310;2024-01-06T02:07:51;5.80;48.90
3736;DHT22;1883;48.202;16.310;2024-01-06T02:10:18;5.90;48.80
3736;DHT22;1883;48.202;16.310;2024-01-06T02:12:45;5.80;48.60
3736;DHT22;1883;48.202;16.310;2024-01-06T02:15:12;5.90;48.50
3736;DHT22;1883;48.202;16.310;2024-01-06T02:17:40;5.80;48.50
3736;DHT22;1883;48.202;16.310;2024-01-06T02:20:08;5.80;48.30
3736;DHT22;1883;48.202;16.310;2024-01-06T02:22:37;5.70;48.20
3736;DHT22;1883;48.202;16.310;2024-01-06T02:25:06;5.70;48.10
3736;DHT22;1883;48.202;16.310;2024-01-06T02:27:38;5.70;47.90
3736;DHT22;1883;48.202;16.310;2024-01-06T02:30:06;5.70;47.90
3736;DHT22;1883;48.202;16.310;2024-01-06T02:32:33;5.70;47.80
3736;DHT22;1883;48.202;16.310;2024-01-06T02:35:00;5.70;47.70
3736;DHT22;1883;48.202;16.310;2024-01-06T02:37:27;5.70;47.70
3736;DHT22;1883;48.202;16.310;2024-01-06T02:39:55;5.80;47.60
3736;DHT22;1883;48.202;16.310;2024-01-06T02:42:22;5.80;47.40
3736;DHT22;1883;48.202;16.310;2024-01-06T02:44:50;5.80;47.60
3736;DHT22;1883;48.202;16.310;2024-01-06T02:47:17;5.80;47.50
3736;DHT22;1883;48.202;16.310;2024-01-06T02:49:44;5.80;47.40
3736;DHT22;1883;48.202;16.310;2024-01-06T02:52:11;5.90;47.40
3736;DHT22;1883;48.202;16.310;2024-01-06T02:54:38;5.90;47.30
3736;DHT22;1883;48.202;16.310;2024-01-06T02:57:07;5.90;47.30
3736;DHT22;1883;48.202;16.310;2024-01-06T02:59:33;5.90;47.10
3736;DHT22;1883;48.202;16.310;2024-01-06T03:02:01;5.90;47.20
3736;DHT22;1883;48.202;16.310;2024-01-06T03:04:28;5.90;47.10
3736;DHT22;1883;48.202;16.310;2024-01-06T03:06:55;5.90;47.10
3736;DHT22;1883;48.202;16.310;2024-01-06T03:09:22;5.90;47.00
3736;DHT22;1883;48.202;16.310;2024-01-06T03:11:49;5.90;46.90
3736;DHT22;1883;48.202;16.310;2024-01-06T03:14:17;5.90;46.80
3736;DHT22;1883;48.202;16.310;2024-01-06T03:16:44;5.80;46.90
3736;DHT22;1883;48.202;16.310;2024-01-06T03:19:11;5.80;46.90
3736;DHT22;1883;48.202;16.310;2024-01-06T03:21:38;5.70;46.60
3736;DHT22;1883;48.202;16.310;2024-01-06T03:24:08;5.70;46.70
3736;DHT22;1883;48.202;16.310;2024-01-06T03:26:35;5.70;46.60
3736;DHT22;1883;48.202;16.310;2024-01-06T03:29:02;5.60;46.50
3736;DHT22;1883;48.202;16.310;2024-01-06T03:31:30;5.60;46.50
3736;DHT22;1883;48.202;16.310;2024-01-06T03:33:57;5.60;46.50
3736;DHT22;1883;48.202;16.310;2024-01-06T03:36:24;5.60;46.50
3736;DHT22;1883;48.202;16.310;2024-01-06T03:38:51;5.50;46.40
3736;DHT22;1883;48.202;16.310;2024-01-06T03:41:18;5.50;46.40
3736;DHT22;1883;48.202;16.310;2024-01-06T03:43:45;5.50;46.40
3736;DHT22;1883;48.202;16.310;2024-01-06T03:46:12;5.60;46.40
3736;DHT22;1883;48.202;16.310;2024-01-06T03:48:40;5.70;46.40
3736;DHT22;1883;48.202;16.310;2024-01-06T03:51:07;5.70;46.20
3736;DHT22;1883;48.202;16.310;2024-01-06T03:53:36;5.80;46.50
3736;DHT22;1883;48.202;16.310;2024-01-06T03:56:04;5.70;46.60
3736;DHT22;1883;48.202;16.310;2024-01-06T03:58:31;5.60;46.40
3736;DHT22;1883;48.202;16.310;2024-01-06T04:00:58;5.70;46.30
3736;DHT22;1883;48.202;16.310;2024-01-06T04:03:25;5.70;46.40
3736;DHT22;1883;48.202;16.310;2024-01-06T04:05:53;5.60;46.40
3736;DHT22;1883;48.202;16.310;2024-01-06T04:08:20;5.60;46.40
3736;DHT22;1883;48.202;16.310;2024-01-06T04:10:47;5.50;46.40
3736;DHT22;1883;48.202;16.310;2024-01-06T04:13:15;5.50;46.30
3736;DHT22;1883;48.202;16.310;2024-01-06T04:15:42;5.50;46.20
3736;DHT22;1883;48.202;16.310;2024-01-06T04:18:09;5.50;46.10
3736;DHT22;1883;48.202;16.310;2024-01-06T04:20:36;5.50;46.20
3736;DHT22;1883;48.202;16.310;2024-01-06T04:23:04;5.40;46.30
3736;DHT22;1883;48.202;16.310;2024-01-06T04:25:31;5.20;46.20
3736;DHT22;1883;48.202;16.310;2024-01-06T04:27:58;5.20;46.10
3736;DHT22;1883;48.202;16.310;2024-01-06T04:30:25;5.10;45.90
3736;DHT22;1883;48.202;16.310;2024-01-06T04:32:52;5.10;45.90
3736;DHT22;1883;48.202;16.310;2024-01-06T04:35:20;5.10;45.90
3736;DHT22;1883;48.202;16.310;2024-01-06T04:37:47;5.20;45.80
3736;DHT22;1883;48.202;16.310;2024-01-06T04:40:15;5.20;45.90
3736;DHT22;1883;48.202;16.310;2024-01-06T04:42:42;5.20;46.10
3736;DHT22;1883;48.202;16.310;2024-01-06T04:45:09;5.10;46.10
3736;DHT22;1883;48.202;16.310;2024-01-06T04:47:36;5.10;46.10
3736;DHT22;1883;48.202;16.310;2024-01-06T04:50:04;4.90;46.10
3736;DHT22;1883;48.202;16.310;2024-01-06T04:52:31;4.80;45.90
3736;DHT22;1883;48.202;16.310;2024-01-06T04:54:58;4.80;46.10
3736;DHT22;1883;48.202;16.310;2024-01-06T04:57:25;4.80;45.90
3736;DHT22;1883;48.202;16.310;2024-01-06T04:59:52;4.80;45.90
3736;DHT22;1883;48.202;16.310;2024-01-06T05:02:19;4.70;46.00
3736;DHT22;1883;48.202;16.310;2024-01-06T05:04:46;4.80;46.00
3736;DHT22;1883;48.202;16.310;2024-01-06T05:07:13;4.70;46.00
3736;DHT22;1883;48.202;16.310;2024-01-06T05:09:40;4.70;46.00
3736;DHT22;1883;48.202;16.310;2024-01-06T05:12:08;4.70;45.90
3736;DHT22;1883;48.202;16.310;2024-01-06T05:14:36;4.70;45.90
3736;DHT22;1883;48.202;16.310;2024-01-06T05:17:03;4.80;45.90
3736;DHT22;1883;48.202;16.310;2024-01-06T05:19:31;4.80;46.00
3736;DHT22;1883;48.202;16.310;2024-01-06T05:21:58;4.80;45.90
3736;DHT22;1883;48.202;16.310;2024-01-06T05:24:25;4.90;45.90
3736;DHT22;1883;48.202;16.310;2024-01-06T05:26:52;4.90;45.90
3736;DHT22;1883;48.202;16.310;2024-01-06T05:29:19;5.00;45.90
3736;DHT22;1883;48.202;16.310;2024-01-06T05:31:47;4.90;46.10
3736;DHT22;1883;48.202;16.310;2024-01-06T05:34:14;4.90;46.00
3736;DHT22;1883;48.202;16.310;2024-01-06T05:36:41;5.00;45.90
3736;DHT22;1883;48.202;16.310;2024-01-06T05:39:08;5.00;46.00
3736;DHT22;1883;48.202;16.310;2024-01-06T05:41:39;5.00;45.90
3736;DHT22;1883;48.202;16.310;2024-01-06T05:44:06;5.10;45.90
3736;DHT22;1883;48.202;16.310;2024-01-06T05:46:34;5.00;46.10
3736;DHT22;1883;48.202;16.310;2024-01-06T05:49:02;4.90;46.00
3736;DHT22;1883;48.202;16.310;2024-01-06T05:51:30;4.90;46.00
3736;DHT22;1883;48.202;16.310;2024-01-06T05:53:57;4.90;46.00
3736;DHT22;1883;48.202;16.310;2024-01-06T05:56:25;4.90;45.80
3736;DHT22;1883;48.202;16.310;2024-01-06T05:58:52;4.80;45.90
3736;DHT22;1883;48.202;16.310;2024-01-06T06:01:20;4.90;46.00
3736;DHT22;1883;48.202;16.310;2024-01-06T06:03:47;4.80;46.00
3736;DHT22;1883;48.202;16.310;2024-01-06T06:06:17;4.80;46.00
3736;DHT22;1883;48.202;16.310;2024-01-06T06:08:44;4.90;45.90
3736;DHT22;1883;48.202;16.310;2024-01-06T06:11:11;4.80;46.10
3736;DHT22;1883;48.202;16.310;2024-01-06T06:13:38;4.80;46.00
3736;DHT22;1883;48.202;16.310;2024-01-06T06:16:07;4.80;46.00
3736;DHT22;1883;48.202;16.310;2024-01-06T06:18:34;4.90;46.00
3736;DHT22;1883;48.202;16.310;2024-01-06T06:21:01;4.80;46.10
3736;DHT22;1883;48.202;16.310;2024-01-06T06:23:30;4.80;46.10
3736;DHT22;1883;48.202;16.310;2024-01-06T06:25:57;4.80;46.00
3736;DHT22;1883;48.202;16.310;2024-01-06T06:28:25;4.80;46.10
3736;DHT22;1883;48.202;16.310;2024-01-06T06:30:52;4.90;46.10
3736;DHT22;1883;48.202;16.310;2024-01-06T06:33:19;4.90;46.10
3736;DHT22;1883;48.202;16.310;2024-01-06T06:35:46;4.80;46.10
3736;DHT22;1883;48.202;16.310;2024-01-06T06:38:13;4.80;46.00
3736;DHT22;1883;48.202;16.310;2024-01-06T06:40:41;4.80;46.00
3736;DHT22;1883;48.202;16.310;2024-01-06T06:43:09;4.80;45.90
3736;DHT22;1883;48.202;16.310;2024-01-06T06:45:35;4.80;45.90
3736;DHT22;1883;48.202;16.310;2024-01-06T06:48:03;4.80;46.00
3736;DHT22;1883;48.202;16.310;2024-01-06T06:50:30;4.80;46.00
3736;DHT22;1883;48.202;16.310;2024-01-06T06:52:57;4.80;46.00
3736;DHT22;1883;48.202;16.310;2024-01-06T06:55:24;4.70;45.90
3736;DHT22;1883;48.202;16.310;2024-01-06T06:57:52;4.70;45.90
3736;DHT22;1883;48.202;16.310;2024-01-06T07:00:20;4.70;45.60
3736;DHT22;1883;48.202;16.310;2024-01-06T07:02:47;4.70;45.80
3736;DHT22;1883;48.202;16.310;2024-01-06T07:05:14;4.80;45.80
3736;DHT22;1883;48.202;16.310;2024-01-06T07:07:41;4.70;45.60
3736;DHT22;1883;48.202;16.310;2024-01-06T07:10:10;4.80;45.90
3736;DHT22;1883;48.202;16.310;2024-01-06T07:12:37;4.80;45.80
3736;DHT22;1883;48.202;16.310;2024-01-06T07:15:06;4.70;45.80
3736;DHT22;1883;48.202;16.310;2024-01-06T07:17:34;4.70;45.80
3736;DHT22;1883;48.202;16.310;2024-01-06T07:20:02;4.60;45.70
3736;DHT22;1883;48.202;16.310;2024-01-06T07:22:29;4.60;45.60
3736;DHT22;1883;48.202;16.310;2024-01-06T07:24:55;4.60;45.50
3736;DHT22;1883;48.202;16.310;2024-01-06T07:27:22;4.60;45.50
3736;DHT22;1883;48.202;16.310;2024-01-06T07:29:49;4.60;45.30
3736;DHT22;1883;48.202;16.310;2024-01-06T07:32:18;4.70;45.50
3736;DHT22;1883;48.202;16.310;2024-01-06T07:34:44;4.70;45.50
3736;DHT22;1883;48.202;16.310;2024-01-06T07:37:12;4.60;45.50
3736;DHT22;1883;48.202;16.310;2024-01-06T07:39:39;4.60;45.50
3736;DHT22;1883;48.202;16.310;2024-01-06T07:42:06;4.60;45.50
3736;DHT22;1883;48.202;16.310;2024-01-06T07:44:33;4.50;45.40
3736;DHT22;1883;48.202;16.310;2024-01-06T07:47:00;4.50;45.40
3736;DHT22;1883;48.202;16.310;2024-01-06T07:49:32;4.50;45.30
3736;DHT22;1883;48.202;16.310;2024-01-06T07:51:59;4.50;45.40
3736;DHT22;1883;48.202;16.310;2024-01-06T07:54:26;4.40;45.30
3736;DHT22;1883;48.202;16.310;2024-01-06T07:56:53;4.40;45.30
3736;DHT22;1883;48.202;16.310;2024-01-06T07:59:21;4.40;45.30
3736;DHT22;1883;48.202;16.310;2024-01-06T08:01:47;4.40;45.30
3736;DHT22;1883;48.202;16.310;2024-01-06T08:04:14;4.40;45.30
3736;DHT22;1883;48.202;16.310;2024-01-06T08:06:43;4.40;45.30
3736;DHT22;1883;48.202;16.310;2024-01-06T08:09:10;4.40;45.30
3736;DHT22;1883;48.202;16.310;2024-01-06T08:11:37;4.40;45.30
3736;DHT22;1883;48.202;16.310;2024-01-06T08:14:04;4.40;45.30
3736;DHT22;1883;48.202;16.310;2024-01-06T08:16:31;4.30;45.30
3736;DHT22;1883;48.202;16.310;2024-01-06T08:18:58;4.30;45.20
3736;DHT22;1883;48.202;16.310;2024-01-06T08:21:27;4.30;45.20
3736;DHT22;1883;48.202;16.310;2024-01-06T08:23:55;4.30;45.30
3736;DHT22;1883;48.202;16.310;2024-01-06T08:26:22;4.30;45.00
3736;DHT22;1883;48.202;16.310;2024-01-06T08:28:49;4.30;45.10
3736;DHT22;1883;48.202;16.310;2024-01-06T08:31:16;4.30;45.10
3736;DHT22;1883;48.202;16.310;2024-01-06T08:33:43;4.30;45.10
3736;DHT22;1883;48.202;16.310;2024-01-06T08:36:13;4.30;45.00
3736;DHT22;1883;48.202;16.310;2024-01-06T08:38:41;4.30;45.20
3736;DHT22;1883;48.202;16.310;2024-01-06T08:41:09;4.30;45.00
3736;DHT22;1883;48.202;16.310;2024-01-06T08:43:36;4.30;45.00
3736;DHT22;1883;48.202;16.310;2024-01-06T08:46:04;4.30;45.10
3736;DHT22;1883;48.202;16.310;2024-01-06T08:48:32;4.40;45.00
3736;DHT22;1883;48.202;16.310;2024-01-06T08:50:59;4.40;45.10
3736;DHT22;1883;48.202;16.310;2024-01-06T08:53:26;4.30;45.00
3736;DHT22;1883;48.202;16.310;2024-01-06T08:55:54;4.30;44.90
3736;DHT22;1883;48.202;16.310;2024-01-06T08:58:25;4.40;45.00
3736;DHT22;1883;48.202;16.310;2024-01-06T09:00:58;4.30;45.00
3736;DHT22;1883;48.202;16.310;2024-01-06T09:03:26;4.40;44.90
3736;DHT22;1883;48.202;16.310;2024-01-06T09:05:55;4.40;45.00
3736;DHT22;1883;48.202;16.310;2024-01-06T09:08:22;4.40;45.00
3736;DHT22;1883;48.202;16.310;2024-01-06T09:10:50;4.40;45.00
3736;DHT22;1883;48.202;16.310;2024-01-06T09:13:28;4.40;44.90
3736;DHT22;1883;48.202;16.310;2024-01-06T09:15:55;4.40;44.90
3736;DHT22;1883;48.202;16.310;2024-01-06T09:18:25;4.40;44.90
3736;DHT22;1883;48.202;16.310;2024-01-06T09:21:06;4.40;44.80
3736;DHT22;1883;48.202;16.310;2024-01-06T09:23:34;4.40;44.80
3736;DHT22;1883;48.202;16.310;2024-01-06T09:26:02;4.40;44.90
3736;DHT22;1883;48.202;16.310;2024-01-06T09:28:31;4.40;44.80
3736;DHT22;1883;48.202;16.310;2024-01-06T09:30:58;4.40;44.70
3736;DHT22;1883;48.202;16.310;2024-01-06T09:33:29;4.40;44.70
3736;DHT22;1883;48.202;16.310;2024-01-06T09:36:06;4.50;44.70
3736;DHT22;1883;48.202;16.310;2024-01-06T09:38:40;4.50;44.60
3736;DHT22;1883;48.202;16.310;2024-01-06T09:41:12;4.50;44.60
3736;DHT22;1883;48.202;16.310;2024-01-06T09:43:41;4.50;44.70
3736;DHT22;1883;48.202;16.310;2024-01-06T09:46:13;4.50;44.70
3736;DHT22;1883;48.202;16.310;2024-01-06T09:48:43;4.40;44.60
3736;DHT22;1883;48.202;16.310;2024-01-06T09:51:15;4.50;44.60
3736;DHT22;1883;48.202;16.310;2024-01-06T09:53:48;4.50;44.50
3736;DHT22;1883;48.202;16.310;2024-01-06T09:56:19;4.40;44.60
3736;DHT22;1883;48.202;16.310;2024-01-06T09:58:50;4.50;44.50
3736;DHT22;1883;48.202;16.310;2024-01-06T10:01:18;4.50;44.50
3736;DHT22;1883;48.202;16.310;2024-01-06T10:03:46;4.50;44.50
3736;DHT22;1883;48.202;16.310;2024-01-06T10:06:13;4.50;44.50
3736;DHT22;1883;48.202;16.310;2024-01-06T10:08:42;4.50;44.40
3736;DHT22;1883;48.202;16.310;2024-01-06T10:11:17;4.60;44.50
3736;DHT22;1883;48.202;16.310;2024-01-06T10:13:55;4.60;44.50
3736;DHT22;1883;48.202;16.310;2024-01-06T10:16:23;4.60;44.50
3736;DHT22;1883;48.202;16.310;2024-01-06T10:18:50;4.60;44.40
3736;DHT22;1883;48.202;16.310;2024-01-06T10:21:23;4.70;44.50
3736;DHT22;1883;48.202;16.310;2024-01-06T10:23:54;4.70;44.50
3736;DHT22;1883;48.202;16.310;2024-01-06T10:26:21;4.70;44.50
3736;DHT22;1883;48.202;16.310;2024-01-06T10:28:50;4.70;44.50
3736;DHT22;1883;48.202;16.310;2024-01-06T10:31:19;4.70;44.50
3736;DHT22;1883;48.202;16.310;2024-01-06T10:33:47;4.60;44.40
3736;DHT22;1883;48.202;16.310;2024-01-06T10:36:22;4.70;44.50
3736;DHT22;1883;48.202;16.310;2024-01-06T10:38:49;4.60;44.40
3736;DHT22;1883;48.202;16.310;2024-01-06T10:41:21;4.70;44.40
3736;DHT22;1883;48.202;16.310;2024-01-06T11:00:09;4.60;44.20
3736;DHT22;1883;48.202;16.310;2024-01-06T11:02:46;4.60;44.30
3736;DHT22;1883;48.202;16.310;2024-01-06T11:05:30;4.60;44.10
3736;DHT22;1883;48.202;16.310;2024-01-06T11:08:10;4.60;44.10
3736;DHT22;1883;48.202;16.310;2024-01-06T11:11:00;4.60;44.10
3736;DHT22;1883;48.202;16.310;2024-01-06T11:14:28;4.60;44.10
3736;DHT22;1883;48.202;16.310;2024-01-06T11:27:05;4.60;44.10
3736;DHT22;1883;48.202;16.310;2024-01-06T11:29:43;4.60;44.20
3736;DHT22;1883;48.202;16.310;2024-01-06T11:32:27;4.70;44.20
3736;DHT22;1883;48.202;16.310;2024-01-06T11:35:04;4.70;44.00
3736;DHT22;1883;48.202;16.310;2024-01-06T11:38:00;4.80;44.30
3736;DHT22;1883;48.202;16.310;2024-01-06T11:40:42;4.70;44.20
3736;DHT22;1883;48.202;16.310;2024-01-06T11:43:53;4.70;44.20
3736;DHT22;1883;48.202;16.310;2024-01-06T11:46:41;4.80;44.10
3736;DHT22;1883;48.202;16.310;2024-01-06T11:49:27;4.80;44.20
3736;DHT22;1883;48.202;16.310;2024-01-06T11:52:08;4.80;44.20
3736;DHT22;1883;48.202;16.310;2024-01-06T11:54:51;4.80;44.30
3736;DHT22;1883;48.202;16.310;2024-01-06T11:57:33;4.80;44.30
3736;DHT22;1883;48.202;16.310;2024-01-06T12:00:28;4.70;44.20
3736;DHT22;1883;48.202;16.310;2024-01-06T12:24:12;4.70;44.40
3736;DHT22;1883;48.202;16.310;2024-01-06T12:26:50;4.70;44.50
3736;DHT22;1883;48.202;16.310;2024-01-06T12:29:19;4.70;44.40
3736;DHT22;1883;48.202;16.310;2024-01-06T12:31:59;4.70;44.40
3736;DHT22;1883;48.202;16.310;2024-01-06T12:34:27;4.70;44.30
3736;DHT22;1883;48.202;16.310;2024-01-06T12:37:05;4.70;44.50
3736;DHT22;1883;48.202;16.310;2024-01-06T12:40:08;4.70;44.60
3736;DHT22;1883;48.202;16.310;2024-01-06T12:42:50;4.60;44.50
3736;DHT22;1883;48.202;16.310;2024-01-06T12:45:31;4.60;44.50
3736;DHT22;1883;48.202;16.310;2024-01-06T12:48:02;4.60;44.60
3736;DHT22;1883;48.202;16.310;2024-01-06T12:50:30;4.60;44.50
3736;DHT22;1883;48.202;16.310;2024-01-06T12:52:57;4.60;44.50
3736;DHT22;1883;48.202;16.310;2024-01-06T12:55:29;4.60;44.40
3736;DHT22;1883;48.202;16.310;2024-01-06T12:58:02;4.60;44.40
3736;DHT22;1883;48.202;16.310;2024-01-06T13:00:41;4.60;44.50
3736;DHT22;1883;48.202;16.310;2024-01-06T13:03:36;4.60;44.50
3736;DHT22;1883;48.202;16.310;2024-01-06T13:06:09;4.60;44.50
3736;DHT22;1883;48.202;16.310;2024-01-06T13:08:54;4.50;44.50
3736;DHT22;1883;48.202;16.310;2024-01-06T13:11:27;4.60;44.50
3736;DHT22;1883;48.202;16.310;2024-01-06T13:16:50;4.50;44.50
3736;DHT22;1883;48.202;16.310;2024-01-06T13:19:19;4.60;44.50
3736;DHT22;1883;48.202;16.310;2024-01-06T13:21:48;4.50;44.40
3736;DHT22;1883;48.202;16.310;2024-01-06T13:24:17;4.60;44.50
3736;DHT22;1883;48.202;16.310;2024-01-06T13:27:02;4.60;44.50
3736;DHT22;1883;48.202;16.310;2024-01-06T13:29:43;4.60;44.50
3736;DHT22;1883;48.202;16.310;2024-01-06T13:32:10;4.60;44.50
3736;DHT22;1883;48.202;16.310;2024-01-06T13:34:41;4.70;44.50
3736;DHT22;1883;48.202;16.310;2024-01-06T13:37:12;4.60;44.50
3736;DHT22;1883;48.202;16.310;2024-01-06T13:39:48;4.70;44.50
3736;DHT22;1883;48.202;16.310;2024-01-06T13:42:41;4.70;44.50
3736;DHT22;1883;48.202;16.310;2024-01-06T13:45:15;4.70;44.40
3736;DHT22;1883;48.202;16.310;2024-01-06T13:47:46;4.60;44.50
3736;DHT22;1883;48.202;16.310;2024-01-06T13:50:17;4.70;44.60
3736;DHT22;1883;48.202;16.310;2024-01-06T13:52:47;4.70;44.50
3736;DHT22;1883;48.202;16.310;2024-01-06T13:55:16;4.60;44.50
3736;DHT22;1883;48.202;16.310;2024-01-06T13:57:45;4.60;44.60
3736;DHT22;1883;48.202;16.310;2024-01-06T14:00:23;4.60;44.60
3736;DHT22;1883;48.202;16.310;2024-01-06T14:02:54;4.70;44.60
3736;DHT22;1883;48.202;16.310;2024-01-06T14:05:22;4.70;44.60
3736;DHT22;1883;48.202;16.310;2024-01-06T14:07:51;4.70;44.60
3736;DHT22;1883;48.202;16.310;2024-01-06T14:10:21;4.70;44.70
3736;DHT22;1883;48.202;16.310;2024-01-06T14:12:56;4.70;44.60
3736;DHT22;1883;48.202;16.310;2024-01-06T14:15:26;4.70;44.70
3736;DHT22;1883;48.202;16.310;2024-01-06T14:18:09;4.70;44.70
3736;DHT22;1883;48.202;16.310;2024-01-06T14:20:40;4.70;44.70
3736;DHT22;1883;48.202;16.310;2024-01-06T14:23:07;4.70;44.60
3736;DHT22;1883;48.202;16.310;2024-01-06T14:25:35;4.60;44.60
3736;DHT22;1883;48.202;16.310;2024-01-06T14:28:23;4.60;44.70
3736;DHT22;1883;48.202;16.310;2024-01-06T14:30:57;4.60;44.70
3736;DHT22;1883;48.202;16.310;2024-01-06T14:33:27;4.70;44.70
3736;DHT22;1883;48.202;16.310;2024-01-06T14:35:55;4.60;44.70
3736;DHT22;1883;48.202;16.310;2024-01-06T14:38:25;4.60;44.70
3736;DHT22;1883;48.202;16.310;2024-01-06T14:40:55;4.60;44.80
3736;DHT22;1883;48.202;16.310;2024-01-06T14:43:30;4.70;44.80
3736;DHT22;1883;48.202;16.310;2024-01-06T14:45:58;4.60;44.80
3736;DHT22;1883;48.202;16.310;2024-01-06T14:48:26;4.60;44.80
3736;DHT22;1883;48.202;16.310;2024-01-06T14:51:02;4.70;44.80
3736;DHT22;1883;48.202;16.310;2024-01-06T14:53:44;4.60;44.70
3736;DHT22;1883;48.202;16.310;2024-01-06T14:56:13;4.70;44.80
3736;DHT22;1883;48.202;16.310;2024-01-06T14:58:50;4.70;44.80
3736;DHT22;1883;48.202;16.310;2024-01-06T15:01:23;4.70;44.80
3736;DHT22;1883;48.202;16.310;2024-01-06T15:03:53;4.60;44.90
3736;DHT22;1883;48.202;16.310;2024-01-06T15:06:20;4.60;44.80
3736;DHT22;1883;48.202;16.310;2024-01-06T15:08:49;4.70;44.90
3736;DHT22;1883;48.202;16.310;2024-01-06T15:11:16;4.70;44.90
3736;DHT22;1883;48.202;16.310;2024-01-06T15:13:46;4.70;44.90
3736;DHT22;1883;48.202;16.310;2024-01-06T15:16:23;4.70;44.90
3736;DHT22;1883;48.202;16.310;2024-01-06T15:18:51;4.70;44.90
3736;DHT22;1883;48.202;16.310;2024-01-06T15:21:18;4.70;44.90
3736;DHT22;1883;48.202;16.310;2024-01-06T15:23:48;4.70;44.90
3736;DHT22;1883;48.202;16.310;2024-01-06T15:26:23;4.70;44.80
3736;DHT22;1883;48.202;16.310;2024-01-06T15:29:05;4.60;44.80
3736;DHT22;1883;48.202;16.310;2024-01-06T15:31:39;4.70;44.90
3736;DHT22;1883;48.202;16.310;2024-01-06T15:34:20;4.60;44.70
3736;DHT22;1883;48.202;16.310;2024-01-06T15:36:58;4.70;44.80
3736;DHT22;1883;48.202;16.310;2024-01-06T15:39:36;4.60;44.70
3736;DHT22;1883;48.202;16.310;2024-01-06T15:42:09;4.60;44.80
3736;DHT22;1883;48.202;16.310;2024-01-06T15:45:12;4.60;44.80
3736;DHT22;1883;48.202;16.310;2024-01-06T15:47:48;4.60;44.70
3736;DHT22;1883;48.202;16.310;2024-01-06T15:50:22;4.60;44.70
3736;DHT22;1883;48.202;16.310;2024-01-06T15:52:53;4.60;44.70
3736;DHT22;1883;48.202;16.310;2024-01-06T15:55:24;4.60;44.70
3736;DHT22;1883;48.202;16.310;2024-01-06T15:57:54;4.70;44.70
3736;DHT22;1883;48.202;16.310;2024-01-06T16:00:24;4.70;44.70
3736;DHT22;1883;48.202;16.310;2024-01-06T16:02:51;4.70;44.70
3736;DHT22;1883;48.202;16.310;2024-01-06T16:05:19;4.70;44.70
3736;DHT22;1883;48.202;16.310;2024-01-06T16:07:47;4.70;44.70
3736;DHT22;1883;48.202;16.310;2024-01-06T16:10:19;4.70;44.70
3736;DHT22;1883;48.202;16.310;2024-01-06T16:12:47;4.70;44.60
3736;DHT22;1883;48.202;16.310;2024-01-06T16:15:19;4.70;44.70
3736;DHT22;1883;48.202;16.310;2024-01-06T16:18:15;4.70;44.70
3736;DHT22;1883;48.202;16.310;2024-01-06T16:20:59;4.70;44.70
3736;DHT22;1883;48.202;16.310;2024-01-06T16:23:41;4.70;44.60
3736;DHT22;1883;48.202;16.310;2024-01-06T16:26:22;4.70;44.60
3736;DHT22;1883;48.202;16.310;2024-01-06T16:29:09;4.70;44.60
3736;DHT22;1883;48.202;16.310;2024-01-06T16:31:57;4.70;44.60
3736;DHT22;1883;48.202;16.310;2024-01-06T16:34:32;4.70;44.60
3736;DHT22;1883;48.202;16.310;2024-01-06T16:37:00;4.70;44.60
3736;DHT22;1883;48.202;16.310;2024-01-06T16:39:30;4.70;44.60
3736;DHT22;1883;48.202;16.310;2024-01-06T16:42:00;4.70;44.50
3736;DHT22;1883;48.202;16.310;2024-01-06T16:44:47;4.70;44.50
3736;DHT22;1883;48.202;16.310;2024-01-06T16:47:14;4.70;44.50
3736;DHT22;1883;48.202;16.310;2024-01-06T16:49:46;4.70;44.40
3736;DHT22;1883;48.202;16.310;2024-01-06T16:52:14;4.70;44.50
3736;DHT22;1883;48.202;16.310;2024-01-06T16:54:47;4.70;44.40
3736;DHT22;1883;48.202;16.310;2024-01-06T16:57:25;4.70;44.50
3736;DHT22;1883;48.202;16.310;2024-01-06T16:59:54;4.70;44.40
3736;DHT22;1883;48.202;16.310;2024-01-06T17:02:42;4.70;44.40
3736;DHT22;1883;48.202;16.310;2024-01-06T17:05:29;4.70;44.40
3736;DHT22;1883;48.202;16.310;2024-01-06T17:07:58;4.70;44.40
3736;DHT22;1883;48.202;16.310;2024-01-06T17:10:26;4.70;44.40
3736;DHT22;1883;48.202;16.310;2024-01-06T17:12:55;4.70;44.40
3736;DHT22;1883;48.202;16.310;2024-01-06T17:15:27;4.70;44.30
3736;DHT22;1883;48.202;16.310;2024-01-06T17:17:54;4.70;44.30